sensor_id;sensor_type;location;lat;lon;timestamp;temperature;humidity
39219;DHT22;24934;52.752;6.964;2023-08-31T00:02:10;9.70;99.90
39219;DHT22;24934;52.752;6.964;2023-08-31T00:04:35;9.70;99.90
39219;DHT22;24934;52.752;6.964;2023-08-31T00:07:01;9.70;99.90
39219;DHT22;24934;52.752;6.964;2023-08-31T00:09:27;9.70;99.90
39219;DHT22;24934;52.752;6.964;2023-08-31T00:11:54;9.70;99.90
39219;DHT22;24934;52.752;6.964;2023-08-31T00:14:22;9.60;99.90
39219;DHT22;24934;52.752;6.964;2023-08-31T00:16:48;9.60;99.90
39219;DHT22;24934;52.752;6.964;2023-08-31T00:19:14;9.60;99.90
39219;DHT22;24934;52.752;6.964;2023-08-31T00:21:40;9.60;99.90
39219;DHT22;24934;52.752;6.964;2023-08-31T00:24:06;9.50;99.90
39219;DHT22;24934;52.752;6.964;2023-08-31T00:26:33;9.60;99.90
39219;DHT22;24934;52.752;6.964;2023-08-31T00:28:59;9.50;99.90
39219;DHT22;24934;52.752;6.964;2023-08-31T00:31:25;9.50;99.90
39219;DHT22;24934;52.752;6.964;2023-08-31T00:33:52;9.50;99.90
39219;DHT22;24934;52.752;6.964;2023-08-31T00:36:18;9.40;99.90
39219;DHT22;24934;52.752;6.964;2023-08-31T00:38:44;9.40;99.90
39219;DHT22;24934;52.752;6.964;2023-08-31T00:41:12;9.40;99.90
39219;DHT22;24934;52.752;6.964;2023-08-31T00:43:38;9.40;99.90
39219;DHT22;24934;52.752;6.964;2023-08-31T00:46:03;9.40;99.90
39219;DHT22;24934;52.752;6.964;2023-08-31T00:48:29;9.40;99.90
39219;DHT22;24934;52.752;6.964;2023-08-31T00:50:55;9.40;99.90
39219;DHT22;24934;52.752;6.964;2023-08-31T00:53:21;9.40;99.90
39219;DHT22;24934;52.752;6.964;2023-08-31T00:55:48;9.40;99.90
39219;DHT22;24934;52.752;6.964;2023-08-31T00:58:14;9.40;99.90
39219;DHT22;24934;52.752;6.964;2023-08-31T01:09:36;9.50;99.90
39219;DHT22;24934;52.752;6.964;2023-08-31T01:15:05;9.50;99.90
39219;DHT22;24934;52.752;6.964;2023-08-31T01:17:39;9.50;99.90
39219;DHT22;24934;52.752;6.964;2023-08-31T01:20:09;9.50;99.90
39219;DHT22;24934;52.752;6.964;2023-08-31T01:22:40;9.50;99.90
39219;DHT22;24934;52.752;6.964;2023-08-31T01:25:09;9.50;99.90
39219;DHT22;24934;52.752;6.964;2023-08-31T01:27:38;9.50;99.90
39219;DHT22;24934;52.752;6.964;2023-08-31T01:30:04;9.50;99.90
39219;DHT22;24934;52.752;6.964;2023-08-31T01:32:35;9.50;99.90
39219;DHT22;24934;52.752;6.964;2023-08-31T01:35:03;9.50;99.90
39219;DHT22;24934;52.752;6.964;2023-08-31T01:37:42;9.50;99.90
39219;DHT22;24934;52.752;6.964;2023-08-31T01:40:19;9.40;99.90
39219;DHT22;24934;52.752;6.964;2023-08-31T01:42:47;9.50;99.90
39219;DHT22;24934;52.752;6.964;2023-08-31T01:45:32;9.40;99.90
39219;DHT22;24934;52.752;6.964;2023-08-31T01:48:01;9.40;99.90
39219;DHT22;24934;52.752;6.964;2023-08-31T01:50:27;9.50;99.90
39219;DHT22;24934;52.752;6.964;2023-08-31T01:52:52;9.50;99.90
39219;DHT22;24934;52.752;6.964;2023-08-31T01:55:24;9.60;99.90
39219;DHT22;24934;52.752;6.964;2023-08-31T01:57:50;9.70;99.90
39219;DHT22;24934;52.752;6.964;2023-08-31T02:00:19;9.70;99.90
39219;DHT22;24934;52.752;6.964;2023-08-31T02:02:45;9.70;99.90
39219;DHT22;24934;52.752;6.964;2023-08-31T02:05:11;9.70;99.90
39219;DHT22;24934;52.752;6.964;2023-08-31T02:07:36;9.80;99.90
39219;DHT22;24934;52.752;6.964;2023-08-31T02:10:03;9.80;99.90
39219;DHT22;24934;52.752;6.964;2023-08-31T02:12:32;9.90;99.90
39219;DHT22;24934;52.752;6.964;2023-08-31T02:14:58;9.90;99.90
39219;DHT22;24934;52.752;6.964;2023-08-31T02:17:24;9.90;99.90
39219;DHT22;24934;52.752;6.964;2023-08-31T02:19:51;9.90;99.90
39219;DHT22;24934;52.752;6.964;2023-08-31T02:22:16;9.90;99.90
39219;DHT22;24934;52.752;6.964;2023-08-31T02:24:42;9.80;99.90
39219;DHT22;24934;52.752;6.964;2023-08-31T02:27:08;9.90;99.90
39219;DHT22;24934;52.752;6.964;2023-08-31T02:29:33;9.90;99.90
39219;DHT22;24934;52.752;6.964;2023-08-31T02:31:59;9.90;99.90
39219;DHT22;24934;52.752;6.964;2023-08-31T02:34:27;10.00;99.90
39219;DHT22;24934;52.752;6.964;2023-08-31T02:36:52;10.00;99.90
39219;DHT22;24934;52.752;6.964;2023-08-31T02:39:18;10.10;99.90
39219;DHT22;24934;52.752;6.964;2023-08-31T02:41:44;10.10;99.90
39219;DHT22;24934;52.752;6.964;2023-08-31T02:44:11;10.10;99.90
39219;DHT22;24934;52.752;6.964;2023-08-31T02:46:36;10.10;99.90
39219;DHT22;24934;52.752;6.964;2023-08-31T02:49:02;10.20;99.90
39219;DHT22;24934;52.752;6.964;2023-08-31T02:51:28;10.20;99.90
39219;DHT22;24934;52.752;6.964;2023-08-31T02:53:53;10.20;99.90
39219;DHT22;24934;52.752;6.964;2023-08-31T02:56:19;10.10;99.90
39219;DHT22;24934;52.752;6.964;2023-08-31T02:58:45;10.10;99.90
39219;DHT22;24934;52.752;6.964;2023-08-31T03:01:12;10.10;99.90
39219;DHT22;24934;52.752;6.964;2023-08-31T03:03:39;10.00;99.90
39219;DHT22;24934;52.752;6.964;2023-08-31T03:06:09;10.00;99.90
39219;DHT22;24934;52.752;6.964;2023-08-31T03:08:36;9.90;99.90
39219;DHT22;24934;52.752;6.964;2023-08-31T03:11:02;9.90;99.90
39219;DHT22;24934;52.752;6.964;2023-08-31T03:13:28;9.90;99.90
39219;DHT22;24934;52.752;6.964;2023-08-31T03:15:54;9.90;99.90
39219;DHT22;24934;52.752;6.964;2023-08-31T03:18:19;9.80;99.90
39219;DHT22;24934;52.752;6.964;2023-08-31T03:20:45;9.80;99.90
39219;DHT22;24934;52.752;6.964;2023-08-31T03:23:11;9.80;99.90
39219;DHT22;24934;52.752;6.964;2023-08-31T03:25:36;9.80;99.90
39219;DHT22;24934;52.752;6.964;2023-08-31T03:28:02;9.80;99.90
39219;DHT22;24934;52.752;6.964;2023-08-31T03:30:28;9.80;99.90
39219;DHT22;24934;52.752;6.964;2023-08-31T03:32:54;9.80;99.90
39219;DHT22;24934;52.752;6.964;2023-08-31T03:35:20;9.70;99.90
39219;DHT22;24934;52.752;6.964;2023-08-31T03:37:49;9.60;99.90
39219;DHT22;24934;52.752;6.964;2023-08-31T03:40:15;9.60;99.90
39219;DHT22;24934;52.752;6.964;2023-08-31T03:42:41;9.60;99.90
39219;DHT22;24934;52.752;6.964;2023-08-31T03:45:06;9.70;99.90
39219;DHT22;24934;52.752;6.964;2023-08-31T03:47:35;9.70;99.90
39219;DHT22;24934;52.752;6.964;2023-08-31T03:50:01;9.70;99.90
39219;DHT22;24934;52.752;6.964;2023-08-31T03:52:26;9.80;99.90
39219;DHT22;24934;52.752;6.964;2023-08-31T03:54:52;9.80;99.90
39219;DHT22;24934;52.752;6.964;2023-08-31T03:57:18;9.80;99.90
39219;DHT22;24934;52.752;6.964;2023-08-31T03:59:44;9.90;99.90
39219;DHT22;24934;52.752;6.964;2023-08-31T04:02:09;9.90;99.90
39219;DHT22;24934;52.752;6.964;2023-08-31T04:04:35;10.00;99.90
39219;DHT22;24934;52.752;6.964;2023-08-31T04:07:01;10.00;99.90
39219;DHT22;24934;52.752;6.964;2023-08-31T04:09:26;10.10;99.90
39219;DHT22;24934;52.752;6.964;2023-08-31T04:12:01;10.20;99.90
39219;DHT22;24934;52.752;6.964;2023-08-31T04:14:27;10.20;99.90
39219;DHT22;24934;52.752;6.964;2023-08-31T04:16:54;10.20;99.90
39219;DHT22;24934;52.752;6.964;2023-08-31T04:19:20;10.20;99.90
39219;DHT22;24934;52.752;6.964;2023-08-31T04:21:48;10.20;99.90
39219;DHT22;24934;52.752;6.964;2023-08-31T04:24:14;10.20;99.90
39219;DHT22;24934;52.752;6.964;2023-08-31T04:26:43;10.10;99.90
39219;DHT22;24934;52.752;6.964;2023-08-31T04:29:10;10.10;99.90
39219;DHT22;24934;52.752;6.964;2023-08-31T04:31:38;10.00;99.90
39219;DHT22;24934;52.752;6.964;2023-08-31T04:34:04;10.00;99.90
39219;DHT22;24934;52.752;6.964;2023-08-31T04:36:30;10.00;99.90
39219;DHT22;24934;52.752;6.964;2023-08-31T04:38:55;10.00;99.90
39219;DHT22;24934;52.752;6.964;2023-08-31T04:41:21;10.00;99.90
39219;DHT22;24934;52.752;6.964;2023-08-31T04:43:47;10.00;99.90
39219;DHT22;24934;52.752;6.964;2023-08-31T04:46:15;10.00;99.90
39219;DHT22;24934;52.752;6.964;2023-08-31T04:48:41;10.00;99.90
39219;DHT22;24934;52.752;6.964;2023-08-31T04:51:09;10.00;99.90
39219;DHT22;24934;52.752;6.964;2023-08-31T04:53:54;10.00;99.90
39219;DHT22;24934;52.752;6.964;2023-08-31T04:56:20;10.10;99.90
39219;DHT22;24934;52.752;6.964;2023-08-31T04:58:46;10.10;99.90
39219;DHT22;24934;52.752;6.964;2023-08-31T05:01:11;10.10;99.90
39219;DHT22;24934;52.752;6.964;2023-08-31T05:03:43;10.20;99.90
39219;DHT22;24934;52.752;6.964;2023-08-31T05:06:11;10.20;99.90
39219;DHT22;24934;52.752;6.964;2023-08-31T05:08:37;10.20;99.90
39219;DHT22;24934;52.752;6.964;2023-08-31T05:11:04;10.20;99.90
39219;DHT22;24934;52.752;6.964;2023-08-31T05:13:29;10.20;99.90
39219;DHT22;24934;52.752;6.964;2023-08-31T05:15:55;10.20;99.90
39219;DHT22;24934;52.752;6.964;2023-08-31T05:18:20;10.30;99.90
39219;DHT22;24934;52.752;6.964;2023-08-31T05:20:49;10.30;99.90
39219;DHT22;24934;52.752;6.964;2023-08-31T05:23:15;10.30;99.90
39219;DHT22;24934;52.752;6.964;2023-08-31T05:25:44;10.40;99.90
39219;DHT22;24934;52.752;6.964;2023-08-31T05:28:10;10.40;99.90
39219;DHT22;24934;52.752;6.964;2023-08-31T05:30:36;10.50;99.90
39219;DHT22;24934;52.752;6.964;2023-08-31T05:33:02;10.50;99.90
39219;DHT22;24934;52.752;6.964;2023-08-31T05:35:30;10.60;99.90
39219;DHT22;24934;52.752;6.964;2023-08-31T05:37:56;10.60;99.90
39219;DHT22;24934;52.752;6.964;2023-08-31T05:40:22;10.60;99.90
39219;DHT22;24934;52.752;6.964;2023-08-31T05:42:47;10.70;99.90
39219;DHT22;24934;52.752;6.964;2023-08-31T05:45:13;10.80;99.90
39219;DHT22;24934;52.752;6.964;2023-08-31T05:47:40;10.90;99.90
39219;DHT22;24934;52.752;6.964;2023-08-31T05:50:09;11.00;99.90
39219;DHT22;24934;52.752;6.964;2023-08-31T05:52:35;11.10;99.90
39219;DHT22;24934;52.752;6.964;2023-08-31T05:55:00;11.10;99.90
39219;DHT22;24934;52.752;6.964;2023-08-31T05:57:26;11.20;99.90
39219;DHT22;24934;52.752;6.964;2023-08-31T05:59:53;11.30;99.90
39219;DHT22;24934;52.752;6.964;2023-08-31T06:02:19;11.30;99.90
39219;DHT22;24934;52.752;6.964;2023-08-31T06:04:47;11.40;99.90
39219;DHT22;24934;52.752;6.964;2023-08-31T06:07:13;11.50;99.90
39219;DHT22;24934;52.752;6.964;2023-08-31T06:09:39;11.50;99.90
39219;DHT22;24934;52.752;6.964;2023-08-31T06:12:05;11.50;99.90
39219;DHT22;24934;52.752;6.964;2023-08-31T06:14:32;11.60;99.90
39219;DHT22;24934;52.752;6.964;2023-08-31T06:17:03;11.60;99.90
39219;DHT22;24934;52.752;6.964;2023-08-31T06:19:29;11.70;99.90
39219;DHT22;24934;52.752;6.964;2023-08-31T06:21:55;11.80;99.90
39219;DHT22;24934;52.752;6.964;2023-08-31T06:24:21;11.90;99.90
39219;DHT22;24934;52.752;6.964;2023-08-31T06:26:46;12.00;99.90
39219;DHT22;24934;52.752;6.964;2023-08-31T06:29:12;12.00;99.90
39219;DHT22;24934;52.752;6.964;2023-08-31T06:31:38;12.20;99.90
39219;DHT22;24934;52.752;6.964;2023-08-31T06:34:03;12.30;99.90
39219;DHT22;24934;52.752;6.964;2023-08-31T06:36:35;12.40;99.90
39219;DHT22;24934;52.752;6.964;2023-08-31T06:39:00;12.40;99.90
39219;DHT22;24934;52.752;6.964;2023-08-31T06:41:29;12.60;99.90
39219;DHT22;24934;52.752;6.964;2023-08-31T06:43:55;12.70;99.90
39219;DHT22;24934;52.752;6.964;2023-08-31T06:46:21;12.90;99.90
39219;DHT22;24934;52.752;6.964;2023-08-31T06:48:50;13.30;99.90
39219;DHT22;24934;52.752;6.964;2023-08-31T06:51:24;13.60;99.90
39219;DHT22;24934;52.752;6.964;2023-08-31T06:53:51;14.00;99.90
39219;DHT22;24934;52.752;6.964;2023-08-31T06:56:16;14.50;99.90
39219;DHT22;24934;52.752;6.964;2023-08-31T06:58:45;14.90;99.90
39219;DHT22;24934;52.752;6.964;2023-08-31T07:01:12;15.50;99.90
39219;DHT22;24934;52.752;6.964;2023-08-31T07:03:38;16.50;99.90
39219;DHT22;24934;52.752;6.964;2023-08-31T07:06:04;17.10;99.90
39219;DHT22;24934;52.752;6.964;2023-08-31T07:08:30;17.20;99.90
39219;DHT22;24934;52.752;6.964;2023-08-31T07:10:56;17.30;99.90
39219;DHT22;24934;52.752;6.964;2023-08-31T07:13:21;17.20;99.90
39219;DHT22;24934;52.752;6.964;2023-08-31T07:15:47;17.20;99.90
39219;DHT22;24934;52.752;6.964;2023-08-31T07:18:14;17.20;99.90
39219;DHT22;24934;52.752;6.964;2023-08-31T07:20:40;17.00;99.90
39219;DHT22;24934;52.752;6.964;2023-08-31T07:23:05;16.90;99.90
39219;DHT22;24934;52.752;6.964;2023-08-31T07:25:31;16.90;99.90
39219;DHT22;24934;52.752;6.964;2023-08-31T07:27:57;16.80;99.90
39219;DHT22;24934;52.752;6.964;2023-08-31T07:30:22;16.80;99.90
39219;DHT22;24934;52.752;6.964;2023-08-31T07:32:48;16.70;99.90
39219;DHT22;24934;52.752;6.964;2023-08-31T07:35:14;16.60;99.90
39219;DHT22;24934;52.752;6.964;2023-08-31T07:37:40;16.50;99.90
39219;DHT22;24934;52.752;6.964;2023-08-31T07:40:07;16.50;99.90
39219;DHT22;24934;52.752;6.964;2023-08-31T07:42:35;16.60;99.90
39219;DHT22;24934;52.752;6.964;2023-08-31T07:45:01;16.70;99.90
39219;DHT22;24934;52.752;6.964;2023-08-31T07:47:26;17.10;99.90
39219;DHT22;24934;52.752;6.964;2023-08-31T07:49:54;18.10;99.90
39219;DHT22;24934;52.752;6.964;2023-08-31T07:52:20;19.00;99.90
39219;DHT22;24934;52.752;6.964;2023-08-31T07:54:46;19.70;99.90
39219;DHT22;24934;52.752;6.964;2023-08-31T07:57:11;20.50;99.90
39219;DHT22;24934;52.752;6.964;2023-08-31T07:59:37;21.40;99.90
39219;DHT22;24934;52.752;6.964;2023-08-31T08:02:05;21.70;99.90
39219;DHT22;24934;52.752;6.964;2023-08-31T08:04:31;22.00;99.90
39219;DHT22;24934;52.752;6.964;2023-08-31T08:06:56;22.20;99.90
39219;DHT22;24934;52.752;6.964;2023-08-31T08:09:22;22.60;99.90
39219;DHT22;24934;52.752;6.964;2023-08-31T08:11:48;22.40;99.90
39219;DHT22;24934;52.752;6.964;2023-08-31T08:14:13;22.30;99.90
39219;DHT22;24934;52.752;6.964;2023-08-31T08:16:41;22.00;99.90
39219;DHT22;24934;52.752;6.964;2023-08-31T08:19:07;22.20;99.90
39219;DHT22;24934;52.752;6.964;2023-08-31T08:21:33;22.40;99.90
39219;DHT22;24934;52.752;6.964;2023-08-31T08:23:59;22.70;99.90
39219;DHT22;24934;52.752;6.964;2023-08-31T08:26:24;23.20;99.90
39219;DHT22;24934;52.752;6.964;2023-08-31T08:28:50;23.20;99.90
39219;DHT22;24934;52.752;6.964;2023-08-31T08:31:16;22.20;99.90
39219;DHT22;24934;52.752;6.964;2023-08-31T08:33:44;21.50;99.90
39219;DHT22;24934;52.752;6.964;2023-08-31T08:36:10;21.10;99.90
39219;DHT22;24934;52.752;6.964;2023-08-31T08:38:35;21.10;99.90
39219;DHT22;24934;52.752;6.964;2023-08-31T08:41:10;21.60;99.90
39219;DHT22;24934;52.752;6.964;2023-08-31T08:43:37;22.20;99.90
39219;DHT22;24934;52.752;6.964;2023-08-31T08:46:05;22.60;99.90
39219;DHT22;24934;52.752;6.964;2023-08-31T08:48:35;23.10;99.90
39219;DHT22;24934;52.752;6.964;2023-08-31T08:51:02;23.90;99.90
39219;DHT22;24934;52.752;6.964;2023-08-31T08:53:28;24.00;99.90
39219;DHT22;24934;52.752;6.964;2023-08-31T08:55:54;24.00;99.90
39219;DHT22;24934;52.752;6.964;2023-08-31T08:58:20;23.90;99.90
39219;DHT22;24934;52.752;6.964;2023-08-31T09:00:46;23.80;99.90
39219;DHT22;24934;52.752;6.964;2023-08-31T09:03:13;23.20;99.90
39219;DHT22;24934;52.752;6.964;2023-08-31T09:05:41;22.00;99.90
39219;DHT22;24934;52.752;6.964;2023-08-31T09:08:09;21.50;99.90
39219;DHT22;24934;52.752;6.964;2023-08-31T09:10:41;20.90;99.90
39219;DHT22;24934;52.752;6.964;2023-08-31T09:13:12;19.90;99.90
39219;DHT22;24934;52.752;6.964;2023-08-31T09:15:46;20.70;99.90
39219;DHT22;24934;52.752;6.964;2023-08-31T09:18:28;21.60;99.90
39219;DHT22;24934;52.752;6.964;2023-08-31T09:20:55;22.60;99.90
39219;DHT22;24934;52.752;6.964;2023-08-31T09:23:27;23.90;99.90
39219;DHT22;24934;52.752;6.964;2023-08-31T09:25:54;24.20;99.90
39219;DHT22;24934;52.752;6.964;2023-08-31T09:28:22;24.30;99.90
39219;DHT22;24934;52.752;6.964;2023-08-31T09:30:50;23.20;99.90
39219;DHT22;24934;52.752;6.964;2023-08-31T09:33:19;22.10;99.90
39219;DHT22;24934;52.752;6.964;2023-08-31T09:35:51;21.30;99.90
39219;DHT22;24934;52.752;6.964;2023-08-31T09:38:18;20.60;99.90
39219;DHT22;24934;52.752;6.964;2023-08-31T09:40:47;19.90;99.90
39219;DHT22;24934;52.752;6.964;2023-08-31T09:43:24;19.50;99.90
39219;DHT22;24934;52.752;6.964;2023-08-31T09:45:50;19.40;99.90
39219;DHT22;24934;52.752;6.964;2023-08-31T09:48:25;19.40;99.90
39219;DHT22;24934;52.752;6.964;2023-08-31T09:50:52;19.20;99.90
39219;DHT22;24934;52.752;6.964;2023-08-31T09:53:20;19.10;99.90
39219;DHT22;24934;52.752;6.964;2023-08-31T09:55:47;19.00;99.90
39219;DHT22;24934;52.752;6.964;2023-08-31T09:58:20;18.80;99.90
39219;DHT22;24934;52.752;6.964;2023-08-31T10:00:52;19.40;99.90
39219;DHT22;24934;52.752;6.964;2023-08-31T10:03:19;20.60;99.90
39219;DHT22;24934;52.752;6.964;2023-08-31T10:05:46;21.60;99.90
39219;DHT22;24934;52.752;6.964;2023-08-31T10:08:12;22.90;99.90
39219;DHT22;24934;52.752;6.964;2023-08-31T10:10:40;23.80;99.90
39219;DHT22;24934;52.752;6.964;2023-08-31T10:13:05;24.30;99.90
39219;DHT22;24934;52.752;6.964;2023-08-31T10:15:33;24.80;99.90
39219;DHT22;24934;52.752;6.964;2023-08-31T10:18:03;25.30;99.90
39219;DHT22;24934;52.752;6.964;2023-08-31T10:20:33;25.30;99.90
39219;DHT22;24934;52.752;6.964;2023-08-31T10:23:06;24.60;99.90
39219;DHT22;24934;52.752;6.964;2023-08-31T10:28:29;22.30;99.90
39219;DHT22;24934;52.752;6.964;2023-08-31T10:31:05;21.50;99.90
39219;DHT22;24934;52.752;6.964;2023-08-31T10:33:35;21.20;99.90
39219;DHT22;24934;52.752;6.964;2023-08-31T10:36:12;20.70;99.90
39219;DHT22;24934;52.752;6.964;2023-08-31T10:41:33;19.60;99.90
39219;DHT22;24934;52.752;6.964;2023-08-31T10:44:17;20.30;99.90
39219;DHT22;24934;52.752;6.964;2023-08-31T10:46:45;21.40;99.90
39219;DHT22;24934;52.752;6.964;2023-08-31T10:51:47;23.50;99.90
39219;DHT22;24934;52.752;6.964;2023-08-31T10:54:31;23.30;99.90
39219;DHT22;24934;52.752;6.964;2023-08-31T10:57:01;22.80;99.90
39219;DHT22;24934;52.752;6.964;2023-08-31T10:59:50;21.90;99.90
39219;DHT22;24934;52.752;6.964;2023-08-31T11:02:42;21.10;99.90
39219;DHT22;24934;52.752;6.964;2023-08-31T11:05:18;20.00;99.90
39219;DHT22;24934;52.752;6.964;2023-08-31T11:07:49;18.80;99.90
39219;DHT22;24934;52.752;6.964;2023-08-31T11:10:23;18.20;99.90
39219;DHT22;24934;52.752;6.964;2023-08-31T11:12:53;17.60;99.90
39219;DHT22;24934;52.752;6.964;2023-08-31T11:15:24;17.90;99.90
39219;DHT22;24934;52.752;6.964;2023-08-31T11:17:51;18.60;99.90
39219;DHT22;24934;52.752;6.964;2023-08-31T11:20:19;18.90;99.90
39219;DHT22;24934;52.752;6.964;2023-08-31T11:22:50;18.70;99.90
39219;DHT22;24934;52.752;6.964;2023-08-31T11:25:16;18.40;99.90
39219;DHT22;24934;52.752;6.964;2023-08-31T11:27:52;18.10;99.90
39219;DHT22;24934;52.752;6.964;2023-08-31T11:30:18;18.30;99.90
39219;DHT22;24934;52.752;6.964;2023-08-31T11:32:51;19.10;99.90
39219;DHT22;24934;52.752;6.964;2023-08-31T11:35:18;19.90;99.90
39219;DHT22;24934;52.752;6.964;2023-08-31T11:37:44;20.60;99.90
39219;DHT22;24934;52.752;6.964;2023-08-31T11:40:13;21.00;99.90
39219;DHT22;24934;52.752;6.964;2023-08-31T11:42:47;21.10;99.90
39219;DHT22;24934;52.752;6.964;2023-08-31T11:45:13;20.60;99.90
39219;DHT22;24934;52.752;6.964;2023-08-31T11:47:40;20.10;99.90
39219;DHT22;24934;52.752;6.964;2023-08-31T11:50:07;19.60;99.90
39219;DHT22;24934;52.752;6.964;2023-08-31T11:52:33;19.60;99.90
39219;DHT22;24934;52.752;6.964;2023-08-31T11:54:59;20.10;99.90
39219;DHT22;24934;52.752;6.964;2023-08-31T11:57:26;20.50;99.90
39219;DHT22;24934;52.752;6.964;2023-08-31T11:59:52;20.70;99.90
39219;DHT22;24934;52.752;6.964;2023-08-31T12:02:19;21.00;99.90
39219;DHT22;24934;52.752;6.964;2023-08-31T12:04:45;21.10;99.90
39219;DHT22;24934;52.752;6.964;2023-08-31T12:07:20;21.20;99.90
39219;DHT22;24934;52.752;6.964;2023-08-31T12:09:48;21.30;99.90
39219;DHT22;24934;52.752;6.964;2023-08-31T12:12:14;21.60;99.90
39219;DHT22;24934;52.752;6.964;2023-08-31T12:14:44;21.60;99.90
39219;DHT22;24934;52.752;6.964;2023-08-31T12:17:10;21.60;99.90
39219;DHT22;24934;52.752;6.964;2023-08-31T12:19:41;21.50;99.90
39219;DHT22;24934;52.752;6.964;2023-08-31T12:22:09;21.60;99.90
39219;DHT22;24934;52.752;6.964;2023-08-31T12:24:40;21.40;99.90
39219;DHT22;24934;52.752;6.964;2023-08-31T12:27:09;21.80;99.90
39219;DHT22;24934;52.752;6.964;2023-08-31T12:29:35;22.20;99.90
39219;DHT22;24934;52.752;6.964;2023-08-31T12:32:01;22.30;99.90
39219;DHT22;24934;52.752;6.964;2023-08-31T12:34:27;22.20;99.90
39219;DHT22;24934;52.752;6.964;2023-08-31T12:36:52;22.40;99.90
39219;DHT22;24934;52.752;6.964;2023-08-31T12:39:18;22.20;99.90
39219;DHT22;24934;52.752;6.964;2023-08-31T12:41:44;22.20;99.90
39219;DHT22;24934;52.752;6.964;2023-08-31T12:44:13;22.60;99.90
39219;DHT22;24934;52.752;6.964;2023-08-31T12:46:38;22.70;99.90
39219;DHT22;24934;52.752;6.964;2023-08-31T12:49:05;22.40;99.90
39219;DHT22;24934;52.752;6.964;2023-08-31T12:51:31;22.40;99.90
39219;DHT22;24934;52.752;6.964;2023-08-31T12:53:57;22.30;99.90
39219;DHT22;24934;52.752;6.964;2023-08-31T12:56:23;22.40;99.90
39219;DHT22;24934;52.752;6.964;2023-08-31T12:58:58;22.40;99.90
39219;DHT22;24934;52.752;6.964;2023-08-31T13:01:24;22.30;99.90
39219;DHT22;24934;52.752;6.964;2023-08-31T13:03:51;22.40;99.90
39219;DHT22;24934;52.752;6.964;2023-08-31T13:06:17;22.20;99.90
39219;DHT22;24934;52.752;6.964;2023-08-31T13:08:44;22.40;99.90
39219;DHT22;24934;52.752;6.964;2023-08-31T13:11:11;22.60;99.90
39219;DHT22;24934;52.752;6.964;2023-08-31T13:13:38;22.50;99.90
39219;DHT22;24934;52.752;6.964;2023-08-31T13:16:04;22.50;99.90
39219;DHT22;24934;52.752;6.964;2023-08-31T13:18:30;21.90;99.90
39219;DHT22;24934;52.752;6.964;2023-08-31T13:20:56;21.70;99.90
39219;DHT22;24934;52.752;6.964;2023-08-31T13:23:22;21.30;99.90
39219;DHT22;24934;52.752;6.964;2023-08-31T13:25:48;20.90;99.90
39219;DHT22;24934;52.752;6.964;2023-08-31T13:28:15;20.60;99.90
39219;DHT22;24934;52.752;6.964;2023-08-31T13:30:41;20.20;99.90
39219;DHT22;24934;52.752;6.964;2023-08-31T13:33:09;20.10;99.90
39219;DHT22;24934;52.752;6.964;2023-08-31T13:35:35;19.60;99.90
39219;DHT22;24934;52.752;6.964;2023-08-31T13:38:02;19.40;99.90
39219;DHT22;24934;52.752;6.964;2023-08-31T13:40:28;19.20;99.90
39219;DHT22;24934;52.752;6.964;2023-08-31T13:42:55;19.00;99.90
39219;DHT22;24934;52.752;6.964;2023-08-31T13:45:30;18.70;99.90
39219;DHT22;24934;52.752;6.964;2023-08-31T13:47:56;18.60;99.90
39219;DHT22;24934;52.752;6.964;2023-08-31T13:50:23;18.50;99.90
39219;DHT22;24934;52.752;6.964;2023-08-31T13:52:48;18.50;99.90
39219;DHT22;24934;52.752;6.964;2023-08-31T13:55:14;18.20;99.90
39219;DHT22;24934;52.752;6.964;2023-08-31T13:57:43;18.20;99.90
39219;DHT22;24934;52.752;6.964;2023-08-31T14:00:09;18.10;99.90
39219;DHT22;24934;52.752;6.964;2023-08-31T14:02:36;18.20;99.90
39219;DHT22;24934;52.752;6.964;2023-08-31T14:05:03;18.30;99.90
39219;DHT22;24934;52.752;6.964;2023-08-31T14:07:29;18.60;99.90
39219;DHT22;24934;52.752;6.964;2023-08-31T14:09:55;18.90;99.90
39219;DHT22;24934;52.752;6.964;2023-08-31T14:12:20;19.20;99.90
39219;DHT22;24934;52.752;6.964;2023-08-31T14:14:50;19.40;99.90
39219;DHT22;24934;52.752;6.964;2023-08-31T14:17:15;19.70;99.90
39219;DHT22;24934;52.752;6.964;2023-08-31T14:19:41;20.20;99.90
39219;DHT22;24934;52.752;6.964;2023-08-31T14:22:06;20.80;99.90
39219;DHT22;24934;52.752;6.964;2023-08-31T14:24:32;21.30;99.90
39219;DHT22;24934;52.752;6.964;2023-08-31T14:27:01;21.60;99.90
39219;DHT22;24934;52.752;6.964;2023-08-31T14:29:27;21.80;99.90
39219;DHT22;24934;52.752;6.964;2023-08-31T14:31:52;21.90;99.90
39219;DHT22;24934;52.752;6.964;2023-08-31T14:34:19;22.30;99.90
39219;DHT22;24934;52.752;6.964;2023-08-31T14:36:45;22.60;99.90
39219;DHT22;24934;52.752;6.964;2023-08-31T14:39:11;22.70;99.90
39219;DHT22;24934;52.752;6.964;2023-08-31T14:41:36;22.90;99.90
39219;DHT22;24934;52.752;6.964;2023-08-31T14:44:02;23.10;99.90
39219;DHT22;24934;52.752;6.964;2023-08-31T14:46:27;23.00;99.90
39219;DHT22;24934;52.752;6.964;2023-08-31T14:48:53;22.90;99.90
39219;DHT22;24934;52.752;6.964;2023-08-31T14:51:19;22.70;99.90
39219;DHT22;24934;52.752;6.964;2023-08-31T14:53:44;22.50;99.90
39219;DHT22;24934;52.752;6.964;2023-08-31T14:56:10;22.20;99.90
39219;DHT22;24934;52.752;6.964;2023-08-31T14:58:36;22.10;99.90
39219;DHT22;24934;52.752;6.964;2023-08-31T15:01:01;22.00;99.90
39219;DHT22;24934;52.752;6.964;2023-08-31T15:03:27;21.90;99.90
39219;DHT22;24934;52.752;6.964;2023-08-31T15:05:53;22.00;99.90
39219;DHT22;24934;52.752;6.964;2023-08-31T15:08:34;22.00;99.90
39219;DHT22;24934;52.752;6.964;2023-08-31T15:11:01;22.10;99.90
39219;DHT22;24934;52.752;6.964;2023-08-31T15:13:27;22.00;99.90
39219;DHT22;24934;52.752;6.964;2023-08-31T15:15:53;22.30;99.90
39219;DHT22;24934;52.752;6.964;2023-08-31T15:18:18;22.30;99.90
39219;DHT22;24934;52.752;6.964;2023-08-31T15:20:44;22.00;99.90
39219;DHT22;24934;52.752;6.964;2023-08-31T15:23:10;21.40;99.90
39219;DHT22;24934;52.752;6.964;2023-08-31T15:25:36;21.20;99.90
39219;DHT22;24934;52.752;6.964;2023-08-31T15:28:01;21.00;99.90
39219;DHT22;24934;52.752;6.964;2023-08-31T15:30:29;21.00;99.90
39219;DHT22;24934;52.752;6.964;2023-08-31T15:33:00;21.00;99.90
39219;DHT22;24934;52.752;6.964;2023-08-31T15:35:25;20.90;99.90
39219;DHT22;24934;52.752;6.964;2023-08-31T15:37:51;20.80;99.90
39219;DHT22;24934;52.752;6.964;2023-08-31T15:40:19;20.20;99.90
39219;DHT22;24934;52.752;6.964;2023-08-31T15:42:45;20.10;99.90
39219;DHT22;24934;52.752;6.964;2023-08-31T15:45:11;20.10;99.90
39219;DHT22;24934;52.752;6.964;2023-08-31T15:47:37;19.90;99.90
39219;DHT22;24934;52.752;6.964;2023-08-31T15:50:06;19.90;99.90
39219;DHT22;24934;52.752;6.964;2023-08-31T15:52:33;19.90;99.90
39219;DHT22;24934;52.752;6.964;2023-08-31T15:55:03;20.10;99.90
39219;DHT22;24934;52.752;6.964;2023-08-31T15:57:30;20.10;99.90